Nearby METAR Reports

 

CYUL - Montreal/Dorval, Quebec, Canada
Distance from station: ENE 6km
Updated: 11/24/2017 16:00 EST
Mostly cloudy
Mostly cloudy
 Wind from S
Wind: S 22 km/h
Temperature: 6°C
Wind Chill: 2°C
Dew Point: 0°C
Humidity: 66%
Barometer: 1006.4 hPa
Clouds: Mostly cloudy
Visibility: 24 km
Cloud details: Few Clouds 2438 m
Mostly cloudy 4572 m
Mostly cloudy 7315 m
2017/11/24 21:00 CYUL 242100Z 17012KT 15SM FEW080 BKN150 BKN240 06/M00 A2972 RMK AC2AC3CI2 SLP066
CWVQ - Ste Anne De Bell, Quebec, Canada
Distance from station: WSW 10km
Updated: 11/24/2017 16:00 EST

 Wind from SSE
Wind: SSE 11 km/h
Temperature: 7°C
Wind Chill: 5°C
Dew Point: 0°C
Humidity: 61%
2017/11/24 21:00 CWVQ 242100Z AUTO 16006KT 07/M00 RMK AO1 SLP064 T00661002 56024
 
CWTA - Mc Tavish (aut), Quebec, Canada
Distance from station: ENE 18km
Updated: 11/24/2017 16:00 EST

 Wind from S
Wind: S 7 km/h
Temperature: 6°C
Wind Chill: 4°C
Dew Point: 0°C
Humidity: 66%
2017/11/24 21:00 CWTA 242100Z AUTO 19004KT 06/M00 RMK AO1 SLP064 T00551003 56025
CYMX - Montreal/Mirabel, Quebec, Canada
Distance from station: NW 29km
Updated: 11/24/2017 16:00 EST
Light rain, Mostly cloudy
Light rain, Mostly cloudy
 Wind from S
Wind: S 15 km/h
Temperature: 5°C
Wind Chill: 2°C
Dew Point: -1°C
Humidity: 66%
Barometer: 1005.8 hPa
Summary: Light rain
Clouds: Mostly cloudy
Visibility: 32 km
Cloud details: Partly cloudy 1219 m
Mostly cloudy 3048 m
Mostly cloudy 4572 m
2017/11/24 21:00 CYMX 242100Z 19008KT 20SM -RA SCT040 BKN100 BKN150 05/M01 A2970 RMK SC4AC2AC1 -RA INTMT SLP063
 
CYHU - Saint Hubert Arp, Quebec, Canada
Distance from station: ENE 31km
Updated: 11/24/2017 16:15 EST
Partly cloudy
Partly cloudy
 Wind from S
Wind: S 31 km/h, Gust: 48 km/h
Temperature: 5°C
Wind Chill: 0°C
Dew Point: -1°C
Humidity: 66%
Barometer: 1006.4 hPa
Clouds: Partly cloudy
Visibility: 14 km
Cloud details: Few Clouds 2438 m
Partly cloudy 3048 m
Partly cloudy 3658 m
2017/11/24 21:15 CYHU 242115Z AUTO 18017G26KT 9SM FEW080 SCT100 SCT120 05/M01 A2972 RMK SLP065
CWIT - St Clothilde (a, Quebec, Canada
Distance from station: SSE 33km
Updated: 11/24/2017 16:00 EST

 Wind from SSE
Wind: SSE 15 km/h
Temperature: 5°C
Wind Chill: 2°C
Dew Point: 0°C
Humidity: 70%
2017/11/24 21:00 CWIT 242100Z AUTO 16008KT 05/M00 RMK AO1 SLP066 T00451004 56020
 
CWIZ - L'acadie, Quebec, Canada
Distance from station: ESE 41km
Updated: 11/24/2017 16:00 EST

 Wind from S
Wind: S 24 km/h
Temperature: 4°C
Wind Chill: -1°C
Dew Point: -1°C
Humidity: 70%
2017/11/24 21:00 CWIZ 242100Z AUTO 17013KT 04/M01 RMK AO1 PK WND 17019/2020 T00431006
CWHM - Varennes, Quebec, Canada
Distance from station: NE 45km
Updated: 10/25/2016 10:00 EDT
NOT Current

 Wind from W
Wind: W 19 km/h, Gust: 28 km/h
Temperature: 4°C
Wind Chill: 0°C
Dew Point: -2°C
Humidity: 65%
2016/10/25 14:00 CWHM 251400Z AUTO 28010G15KT 04/M02 RMK AO1 PK WND 28018/1302 T00391017
 
CWEW - L'assomption, Quebec, Canada
Distance from station: NE 50km
Updated: 11/24/2017 16:00 EST

 Wind from S
Wind: S 15 km/h, Gust: 28 km/h
Temperature: 5°C
Wind Chill: 2°C
Dew Point: 1°C
Humidity: 76%
2017/11/24 21:00 CWEW 242100Z AUTO 17008G15KT 05/01 RMK AO1 SLP067 T00500011 56029
CWBZ - St Anicet, Quebec, Canada
Distance from station: SW 52km
Updated: 11/24/2017 16:00 EST

 Wind from SSW
Wind: SSW 13 km/h
Temperature: 8°C
Wind Chill: 6°C
Dew Point: -1°C
Humidity: 53%
2017/11/24 21:00 CWBZ 242100Z AUTO 21007KT 08/M01 RMK AO1 SLP064 T00791007 58023
 
KFSO - Highgate, Vermont, USA
Distance from station: SE 79km
Updated: 11/24/2017 16:35 EST
Clear
Clear
 Wind from S
Wind: S 19 km/h, Gust: 28 km/h
Temperature: 5°C
Wind Chill: 1°C
Dew Point: -2°C
Humidity: 61%
Barometer: 1007.5 hPa
Clouds: Clear
Visibility: 16 km
2017/11/24 21:35 KFSO 242135Z AUTO 17010G15KT 10SM CLR 05/M02 A2975 RMK AO2 T00521019
CMGB - Granby, Quebec, Canada
Distance from station: E 81km
Updated: 11/24/2017 16:45 EST

 Wind from S
Wind: S 11 km/h
Temperature: 5°C
Wind Chill: 2°C
Dew Point: -1°C
Humidity: 66%
2017/11/24 21:45 CMGB 242145Z AUTO 18006KT 05/M01 RMK AO1 SLP075 T00521009 56021
 
CWJT - St Jovite (autob, Quebec, Canada
Distance from station: NW 88km
Updated: 11/24/2017 18:00 EST

 Wind from SSW
Wind: SSW 4 km/h
Temperature: -4°C
Dew Point: -5°C
Humidity: 93%
2017/11/24 23:00 CWJT 242300Z AUTO 20002KT M04/M05 RMK AO1 SLP130 T10371051 56010
CWFQ - Frelighsburg, Quebec, Canada
Distance from station: ESE 90km
Updated: 11/24/2017 16:00 EST

 Wind from S
Wind: S 19 km/h, Gust: 31 km/h
Temperature: 4°C
Wind Chill: 0°C
Dew Point: -2°C
Humidity: 65%
2017/11/24 21:00 CWFQ 242100Z AUTO 17010G17KT 04/M02 RMK AO1 PK WND 16017/2030 SLP076 T00401017 58019
 
KPBG - Plattsburgh Afb, New York, USA
Distance from station: SSE 93km
Updated: 11/24/2017 15:53 EST
Clear
Clear
 Wind from S
Wind: S 20 km/h, Gust: 35 km/h
Temperature: 6°C
Wind Chill: 2°C
Dew Point: -2°C
Humidity: 57%
Barometer: 1008.5 hPa
Clouds: Clear
Visibility: 16 km
2017/11/24 20:53 KPBG 242053Z AUTO 18011G19KT 10SM CLR 06/M02 A2978 RMK AO2 SLP085 T00611022 58015
KMSS - Massena, New York, USA
Distance from station: SW 100km
Updated: 11/24/2017 15:53 EST
Mostly cloudy
Mostly cloudy
 Wind from SSW
Wind: SSW 22 km/h, Gust: 39 km/h
Temperature: 8°C
Wind Chill: 4°C
Dew Point: -2°C
Humidity: 50%
Barometer: 1006.4 hPa
Clouds: Mostly cloudy
Visibility: 16 km
Cloud details: Mostly cloudy 3658 m
2017/11/24 20:53 KMSS 242053Z AUTO 21012G21KT 10SM BKN120 08/M02 A2972 RMK AO2 SLP069 T00831017 56023
 
CWBS - Lac St Pierre (a, Quebec, Canada
Distance from station: NE 106km
Updated: 11/24/2017 16:00 EST

 Wind from S
Wind: S 26 km/h
Temperature: 4°C
Wind Chill: -1°C
Dew Point: 1°C
Humidity: 81%
2017/11/24 21:00 CWBS 242100Z AUTO 18014KT 04/01 RMK AO1 PK WND 16019/2006 T00390009
KBTV - Burlington, Vermont, USA
Distance from station: SSE 121km
Updated: 11/24/2017 15:54 EST
Partly cloudy
Partly cloudy
 Wind from S
Wind: S 19 km/h
Temperature: 7°C
Wind Chill: 4°C
Dew Point: -3°C
Humidity: 49%
Barometer: 1009.1 hPa
Clouds: Partly cloudy
Visibility: 16 km
Cloud details: Few Clouds 1372 m
Partly cloudy 4572 m
2017/11/24 20:54 KBTV 242054Z 17010KT 10SM FEW045 SCT150 07/M03 A2980 RMK AO2 SLP095 T00671028 56015
 
KSLK - Saranac Lake, New York, USA
Distance from station: SSW 121km
Updated: 11/24/2017 15:51 EST
Clear
Clear
 Wind from SSW
Wind: SSW 19 km/h
Temperature: 4°C
Wind Chill: 0°C
Dew Point: -1°C
Humidity: 70%
Barometer: 1006.8 hPa
Clouds: Clear
Visibility: 16 km
2017/11/24 20:51 KSLK 242051Z AUTO 21010KT 10SM CLR 04/M01 A2973 RMK AO2 SLP082 T00441011 56010
CWNQ - Nicolet (autob), Quebec, Canada
Distance from station: NE 123km
Updated: 11/24/2017 14:00 EST
NOT Current

 Wind from ENE
Wind: ENE 6 km/h
Temperature: 1°C
Dew Point: -2°C
Humidity: 81%
2017/11/24 19:00 CWNQ 241900Z AUTO 06003KT 01/M02 RMK AO1 SLP082 T00051021 58025
 
KMWN - Mount Washington, New Hampshire, USA
Distance from station: SE 237km
Updated: 11/24/2017 15:55 EST

 Wind from W
Wind: W 80 km/h
Visibility: 144 km
2017/11/24 20:55 KMWN 242055Z 27043KT 90SM FEW/// SCT160 BKN180 BKN200 M01/M05 RMK TPS LWR FEW052
CYVR - Vancouver Intl A, British Columbia, Canada
Distance from station: NW 3676km
Updated: 11/24/2017 16:00 EST
Light rain, Overcast
Light rain, Overcast
 Wind from ESE
Wind: ESE 24 km/h
Temperature: 9°C
Wind Chill: 6°C
Dew Point: 7°C
Humidity: 87%
Barometer: 1016.3 hPa
Summary: Light rain
Clouds: Overcast
Visibility: 19 km
Cloud details: Few Clouds 610 m
Few Clouds 1676 m
Mostly cloudy 2103 m
Overcast 2682 m
2017/11/24 21:00 CYVR 242100Z 11013KT 12SM -RA FEW020 FEW055 BKN069 OVC088 09/07 A3001 RMK SF1SC1AC3AS3 SLP162